Bookmark and Share
Track history (hours):
 

Veni Vi

Last reported at 2013-Jul-12 17:20 UTC. Time now 2014-Apr-17 15:41 UTC.
Position N 59°26' E 005°14'.
Warning: this ship's position is months out of date.

Length 13 m.

Type: Sailing vessel. MMSI: 257827490.

NotesDate/timePositionNaut miles runAvg speedWind from/ knotsBaromVisibWave heightAir tempDewpointWater temp
2013-Jul-12 17:20N 59°26' E 005°14'1 1.6
2013-Jul-12 16:28N 59°25' E 005°16'8 8.6
2013-Jul-12 15:33N 59°17' E 005°20'0 0.1
2013-Jul-12 14:28N 59°17' E 005°20'17 5.3
2013-Jul-12 11:18N 59°07' E 005°47'5 6.0
2013-Jul-12 10:33N 59°03' E 005°52'1 1.4
2013-Jul-12 09:33N 59°04' E 005°55'0 0.0
2013-Jul-12 08:33N 59°04' E 005°55'0 0.0
2013-Jul-12 07:33N 59°04' E 005°55'0 0.0
2013-Jul-12 06:33N 59°04' E 005°55'0 0.0
2013-Jul-12 05:33N 59°04' E 005°55'0 0.0
2013-Jul-12 04:30N 59°04' E 005°55'0 0.0
2013-Jul-12 03:33N 59°04' E 005°55'0 0.0
2013-Jul-12 02:33N 59°04' E 005°55'0 0.0
2013-Jul-12 01:33N 59°04' E 005°55'0 0.0
2013-Jul-12 00:33N 59°04' E 005°55'0 0.0
2013-Jul-11 23:33N 59°04' E 005°55'0 0.0
2013-Jul-11 22:33N 59°04' E 005°55'0 0.0
2013-Jul-11 21:33N 59°04' E 005°55'0 0.0
2013-Jul-11 20:33N 59°04' E 005°55'0 0.0
2013-Jul-11 19:33N 59°04' E 005°55'0 0.0
2013-Jul-11 18:33N 59°04' E 005°55'0 0.0
2013-Jul-11 17:33N 59°04' E 005°55'0 0.0
2013-Jul-11 16:33N 59°04' E 005°55'0 0.0
2013-Jul-11 15:33N 59°04' E 005°55'0 0.0
2013-Jul-11 14:33N 59°04' E 005°55'0 0.0
2013-Jul-11 13:33N 59°04' E 005°55'0 0.0
2013-Jul-11 12:33N 59°04' E 005°55'0 0.0
2013-Jul-11 11:33N 59°04' E 005°55'0 0.0
2013-Jul-11 10:33N 59°04' E 005°55'0 0.0
2013-Jul-11 09:33N 59°04' E 005°55'0 0.0
2013-Jul-11 08:33N 59°04' E 005°55'0 0.0
2013-Jul-11 07:33N 59°04' E 005°55'0 0.0
2013-Jul-11 06:30N 59°04' E 005°55'0 0.0
2013-Jul-11 05:33N 59°04' E 005°55'0 0.0
2013-Jul-11 04:33N 59°04' E 005°55'0 0.0
2013-Jul-11 03:30N 59°04' E 005°55'0 0.0
2013-Jul-11 02:33N 59°04' E 005°55'0 0.0
2013-Jul-11 01:33N 59°04' E 005°55'0 0.0
2013-Jul-11 00:33N 59°04' E 005°55'0 0.0
2013-Jul-10 23:33N 59°04' E 005°55'0 0.0
2013-Jul-10 22:33N 59°04' E 005°55'0 0.0
2013-Jul-10 21:33N 59°04' E 005°55'0 0.0
2013-Jul-10 20:33N 59°04' E 005°55'0 0.0
2013-Jul-10 19:33N 59°04' E 005°55'0 0.0
2013-Jul-10 18:33N 59°04' E 005°55'0 0.0
2013-Jul-10 17:33N 59°04' E 005°55'0 0.0
2013-Jul-10 16:33N 59°04' E 005°55'0 0.0
2013-Jul-10 15:33N 59°04' E 005°55'0 0.0
2013-Jul-10 14:33N 59°04' E 005°55'6 5.5
2013-Jul-10 13:33N 59°04' E 005°44'7 6.2
2013-Jul-10 12:27N 59°07' E 005°32'6 6.8
2013-Jul-10 11:31N 59°08' E 005°20'2 2.1
2013-Jul-10 10:26N 59°09' E 005°15'0 0.0
2013-Jul-10 09:20N 59°09' E 005°15'0 0.0
2013-Jul-10 08:32N 59°09' E 005°15'0 0.0
2013-Jul-10 06:20N 59°09' E 005°15'0 0.0
2013-Jul-10 05:26N 59°09' E 005°15'0 0.0
2013-Jul-10 04:26N 59°09' E 005°15'0 0.0
2013-Jul-10 03:26N 59°09' E 005°15'0 0.0
2013-Jul-10 02:32N 59°09' E 005°15'0 0.0
2013-Jul-10 01:32N 59°09' E 005°15'0 0.0
2013-Jul-10 00:32N 59°09' E 005°15'0 0.0
2013-Jul-09 23:08N 59°09' E 005°15'0 0.0
2013-Jul-09 22:26N 59°09' E 005°15'0 0.0
2013-Jul-09 21:32N 59°09' E 005°15'0 0.0
2013-Jul-09 20:20N 59°09' E 005°15'0 0.0
2013-Jul-09 19:32N 59°09' E 005°15'0 0.0
2013-Jul-09 18:20N 59°09' E 005°15'0 0.0
2013-Jul-09 17:32N 59°09' E 005°15'0 0.0
2013-Jul-09 16:24N 59°09' E 005°15'5 4.8
2013-Jul-09 15:19N 59°13' E 005°20'5 6.9
2013-Jul-09 14:33N 59°19' E 005°20'6 6.0
2013-Jul-09 13:32N 59°25' E 005°16'0 0.2
2013-Jul-09 12:32N 59°25' E 005°16'0 0.0
2013-Jul-09 11:33N 59°25' E 005°16'  

Dump ship's entire track history

sailing weather and tide predictions

Veni Vi — LD9966 — position and weather